Time;durP1;ratioP1;P1;durP2;ratioP2;P2;SDS_P1;SDS_P2;PMS_P1;PMS_P2;Temp;Humidity;BMP_temperature;BMP_pressure;BME280_temperature;BME280_humidity;BME280_pressure;Samples;Min_cycle;Max_cycle;Signal;HPM_P1;HPM_P2
2022/11/07 06:01:52;;;;;;;4.05;1.40;;;10.40;99.90;;;;;;5790731;23;20307;-74
2022/11/07 06:04:18;;;;;;;3.53;1.50;;;10.50;99.90;;;;;;5023898;28;20085;-72
2022/11/07 06:06:44;;;;;;;4.63;1.58;;;10.50;99.90;;;;;;5024727;28;20097;-74
2022/11/07 06:09:10;;;;;;;8.98;4.55;;;10.50;99.90;;;;;;5021941;28;20026;-71
2022/11/07 06:11:36;;;;;;;6.10;2.05;;;10.40;99.90;;;;;;5007319;28;20215;-73
2022/11/07 06:14:01;;;;;;;6.50;2.97;;;10.60;99.90;;;;;;5024536;28;20064;-73
2022/11/07 06:16:27;;;;;;;3.53;1.60;;;10.60;99.90;;;;;;5023927;28;20126;-74
2022/11/07 06:18:53;;;;;;;5.13;1.55;;;10.60;99.90;;;;;;5024501;28;20338;-72
2022/11/07 06:21:19;;;;;;;4.40;1.52;;;10.70;99.90;;;;;;5012123;28;20097;-73
2022/11/07 06:23:44;;;;;;;2.47;0.98;;;10.60;99.90;;;;;;5004903;28;20267;-71
2022/11/07 06:26:10;;;;;;;3.53;1.13;;;10.60;99.90;;;;;;5004534;28;20194;-73
2022/11/07 06:28:36;;;;;;;4.63;1.30;;;10.50;99.90;;;;;;5004656;28;20041;-73
2022/11/07 06:31:03;;;;;;;3.42;1.10;;;10.50;99.90;;;;;;4987525;28;20034;-73
2022/11/07 06:33:29;;;;;;;3.90;1.35;;;10.50;99.90;;;;;;5004073;28;20046;-70
2022/11/07 06:36:02;;;;;;;3.92;1.05;;;10.50;99.90;;;;;;5013062;28;20071;-72
2022/11/07 06:38:28;;;;;;;3.58;1.60;;;10.60;99.90;;;;;;5024015;28;20129;-72
2022/11/07 06:41:03;;;;;;;9.57;5.47;;;10.60;99.90;;;;;;5024436;28;20042;-72
2022/11/07 06:43:29;;;;;;;12.10;6.70;;;10.70;99.90;;;;;;5023508;28;20058;-72
2022/11/07 06:45:55;;;;;;;11.93;6.40;;;10.70;99.90;;;;;;5024173;28;20358;-73
2022/11/07 06:48:20;;;;;;;5.70;2.88;;;10.70;99.90;;;;;;5023623;28;20033;-72
2022/11/07 06:50:46;;;;;;;6.40;1.92;;;10.70;99.90;;;;;;5024102;28;20083;-71
2022/11/07 06:53:12;;;;;;;3.22;1.50;;;10.70;99.90;;;;;;5023494;28;20061;-71
2022/11/07 06:55:39;;;;;;;13.80;9.52;;;10.70;99.90;;;;;;5023883;28;20034;-73
2022/11/07 06:58:05;;;;;;;7.57;3.13;;;10.70;99.90;;;;;;5009948;28;20034;-74
2022/11/07 07:00:34;;;;;;;5.05;1.80;;;10.60;99.90;;;;;;5004030;28;20022;-71
2022/11/07 07:02:59;;;;;;;;;;;10.60;99.90;;;;;;5015216;28;20235;-73
2022/11/07 07:05:25;;;;;;;6.72;2.00;;;10.60;99.90;;;;;;5023313;28;19933;-73
2022/11/07 07:07:53;;;;;;;5.35;1.38;;;10.60;99.90;;;;;;5020243;28;20096;-71
2022/11/07 07:10:19;;;;;;;3.92;1.23;;;10.60;99.90;;;;;;5018274;28;20560;-74
2022/11/07 07:12:45;;;;;;;9.75;2.10;;;10.70;99.90;;;;;;5004686;28;20036;-71
2022/11/07 07:15:11;;;;;;;5.78;1.65;;;10.70;99.90;;;;;;5022330;28;20058;-74
2022/11/07 07:17:36;;;;;;;6.22;1.52;;;10.70;99.90;;;;;;5022592;28;20121;-71
2022/11/07 07:20:03;;;;;;;3.83;1.70;;;10.70;99.90;;;;;;5021802;28;20030;-71
2022/11/07 07:22:29;;;;;;;6.80;1.73;;;10.70;99.90;;;;;;5021822;28;20310;-73
2022/11/07 07:24:55;;;;;;;5.30;1.85;;;10.70;99.90;;;;;;5020949;28;20030;-71
2022/11/07 07:27:21;;;;;;;5.03;1.80;;;10.80;99.90;;;;;;5003953;28;20306;-71
2022/11/07 07:29:46;;;;;;;5.63;1.65;;;10.80;99.90;;;;;;5022102;28;20033;-74
2022/11/07 07:32:13;;;;;;;5.75;1.58;;;10.90;99.90;;;;;;5021051;28;20072;-72
2022/11/07 07:34:38;;;;;;;6.95;2.17;;;10.90;99.90;;;;;;5021021;28;20044;-71
2022/11/07 07:37:04;;;;;;;7.35;2.80;;;11.00;99.90;;;;;;5020573;28;20025;-71
2022/11/07 07:39:30;;;;;;;11.93;4.20;;;11.10;99.90;;;;;;5021346;28;20042;-74
2022/11/07 07:41:56;;;;;;;18.23;4.55;;;11.10;99.90;;;;;;5021761;28;20025;-72
2022/11/07 07:44:22;;;;;;;9.07;3.40;;;11.20;99.90;;;;;;5021575;28;20050;-74
2022/11/07 07:46:48;;;;;;;14.82;4.55;;;11.20;99.90;;;;;;5022083;28;20037;-72
2022/11/07 07:49:14;;;;;;;11.05;3.78;;;11.30;99.90;;;;;;5003921;28;20076;-73
2022/11/07 07:51:39;;;;;;;9.80;3.45;;;11.40;99.90;;;;;;5021592;28;20064;-72
2022/11/07 07:54:05;;;;;;;9.07;2.97;;;11.50;99.90;;;;;;5021754;28;20089;-73
2022/11/07 07:56:31;;;;;;;11.50;2.90;;;11.60;99.90;;;;;;5020000;28;20129;-72
2022/11/07 07:58:57;;;;;;;9.98;3.42;;;11.70;99.90;;;;;;5002030;28;20021;-73
2022/11/07 08:01:22;;;;;;;11.02;2.90;;;11.80;99.90;;;;;;5000964;28;20089;-73
2022/11/07 08:03:48;;;;;;;9.25;3.08;;;12.00;99.90;;;;;;5001888;28;20034;-73
2022/11/07 08:06:14;;;;;;;12.05;3.70;;;12.10;99.90;;;;;;4983996;28;20026;-74
2022/11/07 08:08:40;;;;;;;10.20;3.42;;;12.20;99.90;;;;;;5020999;28;20485;-73
2022/11/07 08:11:07;;;;;;;10.73;2.90;;;12.40;99.90;;;;;;5021210;28;20030;-71
2022/11/07 08:13:33;;;;;;;13.00;3.38;;;12.50;99.90;;;;;;5020662;28;20352;-73
2022/11/07 08:16:02;;;;;;;7.38;2.50;;;12.60;99.90;;;;;;5021121;28;20076;-73
2022/11/07 08:18:28;;;;;;;6.50;2.05;;;12.70;99.90;;;;;;5020416;28;20045;-71
2022/11/07 08:20:55;;;;;;;5.32;1.90;;;12.80;99.90;;;;;;5021484;28;20495;-72
2022/11/07 08:23:22;;;;;;;6.03;1.30;;;12.90;99.90;;;;;;5020970;28;20033;-73
2022/11/07 08:25:55;;;;;;;5.35;1.52;;;13.00;99.90;;;;;;5021375;28;20045;-72
2022/11/07 08:28:23;;;;;;;6.15;1.92;;;13.10;99.90;;;;;;5020874;28;20072;-72
2022/11/07 08:31:00;;;;;;;4.20;1.63;;;13.10;99.90;;;;;;5020832;28;20211;-71
2022/11/07 08:33:26;;;;;;;6.80;1.63;;;13.10;99.90;;;;;;5019829;28;20029;-72
2022/11/07 08:35:59;;;;;;;3.95;1.50;;;13.10;99.90;;;;;;5020661;28;20093;-73
2022/11/07 08:38:29;;;;;;;5.30;1.38;;;13.10;99.90;;;;;;5020897;28;20025;-72
2022/11/07 08:40:56;;;;;;;6.32;1.67;;;13.10;99.90;;;;;;5021036;28;20030;-73
2022/11/07 08:43:22;;;;;;;4.85;1.23;;;13.10;99.90;;;;;;5020752;28;20217;-72
2022/11/07 08:45:49;;;;;;;4.20;1.17;;;13.10;99.90;;;;;;5020773;28;20061;-72
2022/11/07 08:48:17;;;;;;;4.70;1.40;;;13.10;99.90;;;;;;5020960;28;20030;-74
2022/11/07 08:50:44;;;;;;;7.78;1.80;;;13.20;99.90;;;;;;5021095;28;20033;-72
2022/11/07 08:53:10;;;;;;;5.93;1.40;;;13.20;99.90;;;;;;5020841;28;20101;-73
2022/11/07 08:55:36;;;;;;;4.05;1.20;;;13.30;99.90;;;;;;5002864;28;20030;-72
2022/11/07 08:58:05;;;;;;;7.53;1.77;;;13.40;99.90;;;;;;4999962;28;20173;-74
2022/11/07 09:00:32;;;;;;;8.18;1.98;;;13.60;99.90;;;;;;4983252;28;20035;-74
2022/11/07 09:03:06;;;;;;;3.40;1.10;;;13.70;99.90;;;;;;5000742;28;20042;-74
2022/11/07 09:05:32;;;;;;;5.18;1.55;;;13.70;99.90;;;;;;5000486;28;20030;-72
2022/11/07 09:07:57;;;;;;;4.18;1.40;;;13.70;99.90;;;;;;5007361;28;20026;-73
2022/11/07 09:10:24;;;;;;;7.10;1.50;;;13.80;99.90;;;;;;5020312;28;20022;-73
2022/11/07 09:12:50;;;;;;;6.97;1.70;;;13.80;99.90;;;;;;5020443;28;20057;-71
2022/11/07 09:15:17;;;;;;;6.07;1.30;;;13.80;99.90;;;;;;5020463;28;20145;-71
2022/11/07 09:17:44;;;;;;;5.28;1.27;;;13.80;99.90;;;;;;5020375;28;20297;-71
2022/11/07 09:20:10;;;;;;;6.57;1.85;;;13.90;99.90;;;;;;5020433;28;20081;-72
2022/11/07 09:22:36;;;;;;;6.53;1.40;;;14.00;99.90;;;;;;5020104;28;20476;-74
2022/11/07 09:25:02;;;;;;;3.20;1.00;;;14.00;99.90;;;;;;5020479;28;20081;-75
2022/11/07 09:27:27;;;;;;;7.78;1.90;;;14.20;99.90;;;;;;5019958;28;20129;-72
2022/11/07 09:29:53;;;;;;;6.18;1.30;;;14.30;99.90;;;;;;5020711;28;20076;-72
2022/11/07 09:32:19;;;;;;;6.97;1.65;;;14.50;99.90;;;;;;5020035;28;20037;-73
2022/11/07 09:34:44;;;;;;;4.75;1.17;;;14.60;99.90;;;;;;5020509;28;20323;-73
2022/11/07 09:37:10;;;;;;;5.57;1.45;;;14.70;99.90;;;;;;5020614;28;20018;-71
2022/11/07 09:39:36;;;;;;;5.50;1.73;;;14.60;99.90;;;;;;5019898;28;20060;-71
2022/11/07 09:42:32;;;;;;;6.68;1.40;;;14.80;99.90;;;;;;5020150;28;20119;-71
2022/11/07 09:45:00;;;;;;;6.55;1.25;;;14.80;99.90;;;;;;5023548;28;20203;-71
2022/11/07 09:47:39;;;;;;;6.10;1.57;;;14.80;99.90;;;;;;5023900;28;20032;-71
2022/11/07 09:50:34;;;;;;;5.47;1.63;;;14.90;99.90;;;;;;5024308;28;20484;-73
2022/11/07 09:53:15;;;;;;;5.18;1.25;;;14.90;99.90;;;;;;5023398;28;20037;-76
2022/11/07 09:55:49;;;;;;;9.00;1.35;;;14.80;99.90;;;;;;5023395;28;20053;-73
2022/11/07 09:58:28;;;;;;;8.52;1.70;;;14.90;99.90;;;;;;5023504;28;20054;-73
2022/11/07 10:00:58;;;;;;;4.22;1.30;;;15.00;99.90;;;;;;5024045;28;20026;-73
2022/11/07 10:03:24;;;;;;;5.07;2.00;;;15.00;99.90;;;;;;5022982;28;20049;-76
2022/11/07 10:05:59;;;;;;;5.05;1.30;;;15.00;99.90;;;;;;5024008;28;20037;-74
2022/11/07 10:08:42;;;;;;;3.88;1.08;;;15.00;99.90;;;;;;5023021;28;20026;-75
2022/11/07 10:11:27;;;;;;;5.65;1.52;;;15.10;99.90;;;;;;5024080;28;20033;-76
2022/11/07 10:14:20;;;;;;;3.80;1.02;;;15.10;99.90;;;;;;5006272;28;20385;-77
2022/11/07 10:17:09;;;;;;;4.97;1.10;;;15.10;99.90;;;;;;5023702;28;20033;-73
2022/11/07 10:20:17;;;;;;;4.40;0.90;;;15.20;99.90;;;;;;5008857;28;20068;-76
2022/11/07 10:22:45;;;;;;;;;;;15.30;99.90;;;;;;4985502;28;20042;-75
2022/11/07 10:25:26;;;;;;;;;;;15.40;99.90;;;;;;5025899;28;19905;-75
2022/11/07 10:28:17;;;;;;;3.47;0.95;;;15.50;99.90;;;;;;5024841;28;19953;-76
2022/11/07 10:30:52;;;;;;;4.82;1.00;;;15.60;99.90;;;;;;5005299;28;20033;-76
2022/11/07 10:33:42;;;;;;;3.83;1.00;;;15.70;99.90;;;;;;5006622;28;20070;-76
2022/11/07 10:36:20;;;;;;;6.55;0.90;;;15.80;99.90;;;;;;5023157;28;20061;-74
2022/11/07 10:38:46;;;;;;;6.13;1.42;;;15.80;99.90;;;;;;5023895;28;20034;-73
2022/11/07 10:41:21;;;;;;;5.63;1.13;;;15.80;99.90;;;;;;5007136;28;20098;-74
2022/11/07 10:43:59;;;;;;;7.22;1.52;;;15.90;99.90;;;;;;5023134;28;20097;-73
2022/11/07 10:46:34;;;;;;;5.03;1.50;;;15.80;99.90;;;;;;5023210;28;20025;-72
2022/11/07 10:49:02;;;;;;;7.45;1.42;;;15.70;99.90;;;;;;5023476;28;20030;-74
2022/11/07 10:51:35;;;;;;;5.30;1.23;;;15.70;99.90;;;;;;5022385;28;20021;-74
2022/11/07 10:54:01;;;;;;;3.88;1.02;;;15.80;99.90;;;;;;5022901;28;20030;-73
2022/11/07 10:56:27;;;;;;;6.35;1.45;;;15.90;99.90;;;;;;5021777;28;20038;-73
2022/11/07 10:58:52;;;;;;;7.38;1.70;;;16.00;99.90;;;;;;5023324;28;20208;-72
2022/11/07 11:01:26;;;;;;;6.93;1.65;;;16.10;99.90;;;;;;5022992;28;20068;-73
2022/11/07 11:03:52;;;;;;;5.30;0.90;;;16.50;99.90;;;;;;5023294;28;20042;-73
2022/11/07 11:06:18;;;;;;;5.95;2.13;;;16.70;99.90;;;;;;5023097;28;20096;-73
2022/11/07 11:08:49;;;;;;;9.80;3.55;;;17.00;99.90;;;;;;5022257;28;20248;-74
2022/11/07 11:11:21;;;;;;;4.68;1.13;;;17.10;99.90;;;;;;5005267;28;20030;-76
2022/11/07 11:13:48;;;;;;;5.93;3.30;;;16.90;99.90;;;;;;4988701;28;20220;-73
2022/11/07 11:16:25;;;;;;;5.68;1.50;;;16.70;99.90;;;;;;5004701;28;20029;-74
2022/11/07 11:18:54;;;;;;;6.80;3.47;;;16.70;99.90;;;;;;5022641;28;20065;-74
2022/11/07 11:21:20;;;;;;;4.72;1.77;;;16.80;99.90;;;;;;5021552;28;20029;-73
2022/11/07 11:23:47;;;;;;;5.20;1.85;;;16.80;99.90;;;;;;5022023;28;20029;-74
2022/11/07 11:26:35;;;;;;;10.38;4.82;;;17.40;99.70;;;;;;5022293;28;20045;-74
2022/11/07 11:29:05;;;;;;;6.22;1.85;;;18.10;98.80;;;;;;5022385;28;20022;-74
2022/11/07 11:31:42;;;;;;;11.43;3.88;;;18.90;98.00;;;;;;5021889;28;20288;-73
2022/11/07 11:34:42;;;;;;;4.93;1.23;;;19.80;96.30;;;;;;5021843;28;20231;-75
2022/11/07 11:37:14;;;;;;;4.38;1.30;;;20.20;94.60;;;;;;4990778;28;20065;-78
2022/11/07 11:39:46;;;;;;;4.00;0.90;;;20.40;93.80;;;;;;5021964;28;20026;-73
2022/11/07 11:42:45;;;;;;;4.07;0.70;;;20.80;93.30;;;;;;5021769;28;20040;-74
2022/11/07 11:45:38;;;;;;;2.72;0.60;;;20.40;93.00;;;;;;5022133;28;20223;-74
2022/11/07 11:48:24;;;;;;;3.70;0.70;;;20.20;93.20;;;;;;4984844;28;20084;-73
2022/11/07 11:51:37;;;;;;;2.75;0.80;;;19.60;93.50;;;;;;5021902;28;20060;-73
2022/11/07 11:54:11;;;;;;;2.63;0.60;;;19.20;94.00;;;;;;5014745;28;20045;-74
2022/11/07 11:56:51;;;;;;;3.30;0.88;;;19.20;94.50;;;;;;5003985;28;20042;-74
2022/11/07 11:59:36;;;;;;;3.38;0.80;;;19.10;94.40;;;;;;5021479;28;20113;-73
2022/11/07 12:02:30;;;;;;;3.15;0.70;;;18.90;94.30;;;;;;5016580;28;20049;-74
2022/11/07 12:05:13;;;;;;;2.92;0.70;;;18.80;94.20;;;;;;5002104;28;20030;-74
2022/11/07 12:07:54;;;;;;;3.83;0.73;;;18.40;94.40;;;;;;5000427;28;20326;-73
2022/11/07 12:10:28;;;;;;;3.60;0.73;;;18.40;94.80;;;;;;5001731;28;20062;-73
2022/11/07 12:13:28;;;;;;;5.75;0.70;;;18.30;94.90;;;;;;5001860;28;20077;-74
2022/11/07 12:16:10;;;;;;;5.22;0.65;;;18.30;94.50;;;;;;5000483;28;20101;-73
2022/11/07 12:18:41;;;;;;;3.83;0.60;;;18.50;94.50;;;;;;5001443;28;20053;-75
2022/11/07 12:21:30;;;;;;;4.70;0.90;;;18.50;94.10;;;;;;5000695;28;20067;-75
2022/11/07 12:24:20;;;;;;;3.67;0.98;;;18.10;94.60;;;;;;5001759;28;20215;-75
2022/11/07 12:27:04;;;;;;;5.00;0.70;;;18.10;94.80;;;;;;5001132;28;20038;-74
2022/11/07 12:30:07;;;;;;;4.50;0.65;;;18.00;95.30;;;;;;5000971;28;20351;-76
2022/11/07 12:32:47;;;;;;;2.80;0.75;;;18.10;95.10;;;;;;5000765;28;20248;-74
2022/11/07 12:35:39;;;;;;;4.13;0.82;;;18.10;94.90;;;;;;5001487;28;20085;-75
2022/11/07 12:38:45;;;;;;;3.67;1.38;;;18.00;94.90;;;;;;5001533;28;20091;-75
2022/11/07 12:41:47;;;;;;;2.90;0.45;;;18.10;94.80;;;;;;4971857;28;20076;-75
2022/11/07 12:44:28;;;;;;;4.25;0.70;;;18.20;95.20;;;;;;5000027;28;20030;-76
2022/11/07 12:46:57;;;;;;;2.45;0.60;;;18.30;94.60;;;;;;5000225;28;20085;-75
2022/11/07 12:49:41;;;;;;;4.35;0.40;;;18.10;94.90;;;;;;5001118;28;20034;-75
2022/11/07 12:52:54;;;;;;;2.88;0.47;;;18.10;94.70;;;;;;5001514;28;20045;-74
2022/11/07 12:55:45;;;;;;;2.25;0.50;;;18.20;94.40;;;;;;5001099;28;20034;-75
2022/11/07 12:58:22;;;;;;;3.30;0.55;;;18.20;94.70;;;;;;5001138;28;20042;-75
2022/11/07 13:00:50;;;;;;;3.78;0.60;;;17.90;94.50;;;;;;4999924;28;20026;-75
2022/11/07 13:03:19;;;;;;;3.83;0.98;;;17.90;94.50;;;;;;4999985;28;20050;-75
2022/11/07 13:06:03;;;;;;;3.75;0.55;;;17.80;94.60;;;;;;5000916;28;20034;-74
2022/11/07 13:08:55;;;;;;;3.28;0.70;;;17.90;95.00;;;;;;5000806;28;20031;-75
2022/11/07 13:11:37;;;;;;;5.22;0.70;;;17.90;94.60;;;;;;5001068;28;20094;-75
2022/11/07 13:14:18;;;;;;;3.42;0.60;;;17.90;94.60;;;;;;5001126;28;20034;-74
2022/11/07 13:17:12;;;;;;;3.88;1.08;;;17.90;94.40;;;;;;5000763;28;20050;-74
2022/11/07 13:19:43;;;;;;;3.25;0.63;;;17.70;94.80;;;;;;5003364;28;20046;-76
2022/11/07 13:22:15;;;;;;;2.00;0.57;;;17.60;95.00;;;;;;5003786;28;20347;-76
2022/11/07 13:25:14;;;;;;;3.05;0.70;;;17.70;95.30;;;;;;5004284;28;20022;-75
2022/11/07 13:27:54;;;;;;;1.90;0.35;;;18.20;94.50;;;;;;5003073;28;20018;-75
2022/11/07 13:30:21;;;;;;;3.30;0.60;;;19.00;93.60;;;;;;5003779;28;20208;-74
2022/11/07 13:32:49;;;;;;;2.77;0.73;;;19.20;92.70;;;;;;5004068;28;20022;-76
2022/11/07 13:35:38;;;;;;;4.07;0.80;;;19.20;92.30;;;;;;5004505;28;20453;-75
2022/11/07 13:38:19;;;;;;;6.95;3.20;;;19.10;93.20;;;;;;5020023;28;20046;-74
2022/11/07 13:40:57;;;;;;;8.80;3.47;;;19.00;92.90;;;;;;5003726;28;20362;-76
2022/11/07 13:43:45;;;;;;;6.10;2.67;;;18.60;93.20;;;;;;5003509;28;20144;-74
2022/11/07 13:46:30;;;;;;;5.13;1.63;;;18.40;94.00;;;;;;4987353;28;20042;-75
2022/11/07 13:49:01;;;;;;;4.55;1.65;;;18.20;93.80;;;;;;5003229;28;20037;-74
2022/11/07 13:51:32;;;;;;;3.83;0.90;;;18.20;94.00;;;;;;5000191;28;20037;-73
2022/11/07 13:54:10;;;;;;;5.60;1.75;;;18.20;93.80;;;;;;5004410;28;20041;-74
2022/11/07 13:56:55;;;;;;;5.50;2.17;;;18.00;94.10;;;;;;5004300;28;20088;-73
2022/11/07 13:59:56;;;;;;;6.28;1.67;;;18.10;94.10;;;;;;5004349;28;20452;-74
2022/11/07 14:02:28;;;;;;;3.38;1.00;;;18.20;94.00;;;;;;5012074;28;20049;-74
2022/11/07 14:04:59;;;;;;;6.45;1.45;;;18.20;93.80;;;;;;5023136;28;20018;-75
2022/11/07 14:07:25;;;;;;;5.05;1.85;;;18.10;93.70;;;;;;5023653;28;20219;-76
2022/11/07 14:09:58;;;;;;;3.33;0.80;;;18.00;93.70;;;;;;5023389;28;20084;-74
2022/11/07 14:12:25;;;;;;;6.68;3.88;;;18.10;93.90;;;;;;5020426;28;20030;-75
2022/11/07 14:14:54;;;;;;;4.93;1.70;;;18.10;94.00;;;;;;5015861;28;20310;-75
2022/11/07 14:17:31;;;;;;;8.73;4.60;;;18.10;94.10;;;;;;5022701;28;20038;-74
2022/11/07 14:20:15;;;;;;;2.85;0.88;;;18.30;93.60;;;;;;5022237;28;20026;-75
2022/11/07 14:22:56;;;;;;;4.30;1.13;;;18.30;93.50;;;;;;5022895;28;20145;-75
2022/11/07 14:25:31;;;;;;;4.18;1.70;;;18.30;93.40;;;;;;5016315;28;20032;-75
2022/11/07 14:27:58;;;;;;;5.25;0.93;;;18.20;94.10;;;;;;5012266;28;20022;-76
2022/11/07 14:30:26;;;;;;;3.47;0.70;;;18.10;93.20;;;;;;5009306;28;20042;-73
2022/11/07 14:32:55;;;;;;;3.70;0.75;;;17.80;93.50;;;;;;4985375;28;20112;-74
2022/11/07 14:35:27;;;;;;;4.40;0.80;;;17.60;93.80;;;;;;5013794;28;20029;-75
2022/11/07 14:37:54;;;;;;;2.30;0.88;;;17.50;94.20;;;;;;5008862;28;20038;-74
2022/11/07 14:40:20;;;;;;;4.32;0.88;;;17.50;94.10;;;;;;5014889;28;20034;-74
2022/11/07 14:42:46;;;;;;;2.88;0.75;;;17.50;94.20;;;;;;5009476;28;20037;-76
2022/11/07 14:45:15;;;;;;;3.47;1.02;;;17.30;94.50;;;;;;5002385;28;20037;-75
2022/11/07 14:47:43;;;;;;;2.70;0.50;;;17.10;94.50;;;;;;5003169;28;20161;-75
2022/11/07 14:50:23;;;;;;;4.63;0.80;;;16.90;94.70;;;;;;5006831;28;20324;-73
2022/11/07 14:53:00;;;;;;;2.35;0.90;;;16.80;95.20;;;;;;5022277;28;20044;-73
2022/11/07 14:55:42;;;;;;;3.40;0.85;;;16.70;95.80;;;;;;5023004;28;20331;-73
2022/11/07 14:58:10;;;;;;;2.08;0.60;;;16.60;96.20;;;;;;5022682;28;20033;-73
2022/11/07 15:00:36;;;;;;;4.82;1.25;;;16.50;96.30;;;;;;5004833;28;20145;-73
2022/11/07 15:03:03;;;;;;;4.18;1.08;;;16.40;96.70;;;;;;5022473;28;20217;-73
2022/11/07 15:05:34;;;;;;;5.53;1.83;;;16.40;97.00;;;;;;5022408;28;20084;-73
2022/11/07 15:08:01;;;;;;;5.82;1.70;;;16.30;97.50;;;;;;5022268;28;20062;-72
2022/11/07 15:10:38;;;;;;;6.53;1.83;;;16.20;97.60;;;;;;5022276;28;20042;-74
2022/11/07 15:13:25;;;;;;;4.78;1.73;;;16.20;97.70;;;;;;5022544;28;20026;-74
2022/11/07 15:16:15;;;;;;;4.68;1.75;;;16.10;97.70;;;;;;5021829;28;20049;-73
2022/11/07 15:18:43;;;;;;;6.47;1.50;;;16.10;97.80;;;;;;5004413;28;20032;-73
2022/11/07 15:21:23;;;;;;;4.05;1.30;;;16.00;97.90;;;;;;5022334;28;20101;-73
2022/11/07 15:23:51;;;;;;;4.45;1.33;;;15.90;98.00;;;;;;5021758;28;20211;-75
2022/11/07 15:26:21;;;;;;;4.00;1.10;;;15.80;98.10;;;;;;5022651;28;20088;-75
2022/11/07 15:28:52;;;;;;;4.25;1.30;;;15.70;98.00;;;;;;5021738;28;20075;-73
2022/11/07 15:31:29;;;;;;;4.35;1.10;;;15.70;98.30;;;;;;5004725;28;20089;-75
2022/11/07 15:33:57;;;;;;;6.28;1.10;;;15.60;98.20;;;;;;5021732;28;20271;-75
2022/11/07 15:36:24;;;;;;;3.88;0.85;;;15.50;98.20;;;;;;5022219;28;20210;-74
2022/11/07 15:38:51;;;;;;;4.80;1.20;;;15.50;98.40;;;;;;5022131;28;20025;-75
2022/11/07 15:41:18;;;;;;;5.45;1.48;;;15.50;98.70;;;;;;5004396;28;20048;-76
2022/11/07 15:43:44;;;;;;;4.13;0.90;;;15.40;98.40;;;;;;5021487;28;20315;-75
2022/11/07 15:46:22;;;;;;;4.80;1.35;;;15.40;98.40;;;;;;5022037;28;20038;-78
2022/11/07 15:48:48;;;;;;;;;;;15.40;98.90;;;;;;5022151;28;20022;-77
2022/11/07 15:51:13;;;;;;;4.20;1.15;;;15.30;98.60;;;;;;5022021;28;20065;-76
2022/11/07 15:53:39;;;;;;;6.63;2.97;;;15.20;98.90;;;;;;5021038;28;20026;-75
2022/11/07 15:56:07;;;;;;;7.45;2.25;;;15.20;98.70;;;;;;5021071;28;20260;-76
2022/11/07 15:58:34;;;;;;;4.50;1.67;;;15.20;98.80;;;;;;5021634;28;20030;-73
2022/11/07 16:01:00;;;;;;;4.13;1.90;;;15.10;98.90;;;;;;5020971;28;20046;-72
2022/11/07 16:03:27;;;;;;;5.35;2.72;;;15.00;99.10;;;;;;5020317;28;20187;-76
2022/11/07 16:05:56;;;;;;;7.32;2.92;;;15.00;99.30;;;;;;5021444;28;20029;-74
2022/11/07 16:08:23;;;;;;;7.45;4.53;;;14.90;99.40;;;;;;5021596;28;20025;-74
2022/11/07 16:10:52;;;;;;;5.28;1.75;;;14.80;99.60;;;;;;5003370;28;20107;-76
2022/11/07 16:13:18;;;;;;;4.90;1.40;;;14.70;99.90;;;;;;5021304;28;20269;-74
2022/11/07 16:15:48;;;;;;;4.22;1.40;;;14.60;99.90;;;;;;5020718;28;20038;-73
2022/11/07 16:18:16;;;;;;;6.38;3.40;;;14.50;99.90;;;;;;5021252;28;20109;-73
2022/11/07 16:20:42;;;;;;;4.63;2.08;;;14.40;99.90;;;;;;5020614;28;20037;-73
2022/11/07 16:23:09;;;;;;;8.90;4.50;;;14.20;99.90;;;;;;4987281;28;20068;-75
2022/11/07 16:25:39;;;;;;;10.77;3.83;;;14.20;99.90;;;;;;5021022;28;20026;-72
2022/11/07 16:28:18;;;;;;;7.63;3.50;;;14.00;99.90;;;;;;5021210;28;20205;-73
2022/11/07 16:30:43;;;;;;;;;;;13.90;99.90;;;;;;5021289;28;20026;-72
2022/11/07 16:33:11;;;;;;;4.85;2.30;;;13.90;99.90;;;;;;5020211;28;19919;-72
2022/11/07 16:35:37;;;;;;;11.53;3.23;;;13.80;99.90;;;;;;5020990;28;20085;-76
2022/11/07 16:38:15;;;;;;;6.75;2.42;;;13.70;99.90;;;;;;5020929;28;20036;-70
2022/11/07 16:40:41;;;;;;;5.97;2.20;;;13.70;99.90;;;;;;5020736;28;20022;-72
2022/11/07 16:43:07;;;;;;;7.32;2.97;;;13.70;99.90;;;;;;5003844;28;20040;-74
2022/11/07 16:45:35;;;;;;;10.25;3.70;;;13.60;99.90;;;;;;5021131;28;20029;-74
2022/11/07 16:48:01;;;;;;;9.10;4.20;;;13.60;99.90;;;;;;5019524;28;20045;-73
2022/11/07 16:50:27;;;;;;;6.78;2.50;;;13.60;99.90;;;;;;5003538;28;20021;-73
2022/11/07 16:52:53;;;;;;;6.72;2.05;;;13.50;99.90;;;;;;5002184;28;20080;-74
2022/11/07 16:55:19;;;;;;;6.80;2.35;;;13.50;99.90;;;;;;5021322;28;20036;-72
2022/11/07 16:57:45;;;;;;;6.28;1.55;;;13.40;99.90;;;;;;5020670;28;20045;-77
2022/11/07 17:00:15;;;;;;;5.32;1.40;;;13.40;99.90;;;;;;5020028;28;20093;-74
2022/11/07 17:02:41;;;;;;;5.20;1.63;;;13.30;99.90;;;;;;5019892;28;20041;-73
2022/11/07 17:05:07;;;;;;;4.43;1.13;;;13.20;99.90;;;;;;5021171;28;20034;-73
2022/11/07 17:07:33;;;;;;;3.28;1.20;;;13.20;99.90;;;;;;5020188;28;20359;-73
2022/11/07 17:09:59;;;;;;;6.93;1.63;;;13.20;99.90;;;;;;5020986;28;20040;-75
2022/11/07 17:12:24;;;;;;;4.82;1.80;;;13.10;99.90;;;;;;5020618;28;20046;-75
2022/11/07 17:14:51;;;;;;;6.25;1.58;;;13.10;99.90;;;;;;5020175;28;20030;-76
2022/11/07 17:17:17;;;;;;;4.53;1.90;;;13.00;99.90;;;;;;5020623;28;20037;-75
2022/11/07 17:19:43;;;;;;;10.27;3.97;;;13.00;99.90;;;;;;5019671;28;20093;-74
2022/11/07 17:22:10;;;;;;;13.50;5.25;;;12.90;99.90;;;;;;5002836;28;20056;-75
2022/11/07 17:24:35;;;;;;;19.40;7.35;;;12.90;99.90;;;;;;5020072;28;20030;-72
2022/11/07 17:27:01;;;;;;;7.15;2.55;;;13.00;99.90;;;;;;5019822;28;20045;-71
2022/11/07 17:29:27;;;;;;;6.28;1.60;;;13.00;99.90;;;;;;5020525;28;20040;-74
2022/11/07 17:31:53;;;;;;;4.93;1.30;;;13.10;99.90;;;;;;5020069;28;20045;-73
2022/11/07 17:34:20;;;;;;;4.85;1.50;;;13.00;99.90;;;;;;5003248;28;20182;-71
2022/11/07 17:36:49;;;;;;;4.72;2.10;;;13.00;99.90;;;;;;5020141;28;20022;-74
2022/11/07 17:39:20;;;;;;;3.70;1.83;;;12.90;99.90;;;;;;5020593;28;20102;-73
2022/11/07 17:41:55;;;;;;;5.50;2.30;;;12.80;99.90;;;;;;5020102;28;20064;-74
2022/11/07 17:44:26;;;;;;;5.43;1.90;;;12.80;99.90;;;;;;4984238;28;20050;-76
2022/11/07 17:46:52;;;;;;;5.82;1.90;;;12.70;99.90;;;;;;5000140;28;20320;-73
2022/11/07 17:49:20;;;;;;;6.97;2.55;;;12.60;99.90;;;;;;5000594;28;20289;-75
2022/11/07 17:51:46;;;;;;;6.13;2.83;;;12.50;99.90;;;;;;5007957;28;21909;-76
2022/11/07 17:54:14;;;;;;;7.30;3.08;;;12.50;99.90;;;;;;5020546;28;20324;-70
2022/11/07 17:56:41;;;;;;;6.43;3.13;;;12.50;99.90;;;;;;5019811;28;20048;-74
2022/11/07 17:59:11;;;;;;;8.00;2.97;;;12.50;99.90;;;;;;5017355;28;20029;-73
2022/11/07 18:01:37;;;;;;;8.32;2.72;;;12.40;99.90;;;;;;5000179;28;20027;-74
2022/11/07 18:04:04;;;;;;;7.57;2.55;;;12.40;99.90;;;;;;4999262;28;20092;-74
2022/11/07 18:06:34;;;;;;;7.45;3.40;;;12.30;99.90;;;;;;5002678;28;20065;-74
2022/11/07 18:09:00;;;;;;;8.55;4.43;;;12.30;99.90;;;;;;5003483;28;20026;-74
2022/11/07 18:11:28;;;;;;;9.40;4.30;;;12.30;99.90;;;;;;5003913;28;20169;-73
2022/11/07 18:13:56;;;;;;;8.00;3.78;;;12.30;99.90;;;;;;5003532;28;20085;-73
2022/11/07 18:16:27;;;;;;;9.65;3.92;;;12.20;99.90;;;;;;5019120;28;20346;-73
2022/11/07 18:18:53;;;;;;;10.77;3.47;;;12.20;99.90;;;;;;5023185;28;20193;-76
2022/11/07 18:21:19;;;;;;;6.88;3.20;;;12.10;99.90;;;;;;5023571;28;20045;-75
2022/11/07 18:23:45;;;;;;;8.90;3.10;;;12.10;99.90;;;;;;5023276;28;20029;-74
2022/11/07 18:26:16;;;;;;;8.98;3.00;;;12.00;99.90;;;;;;5023177;28;20076;-73
2022/11/07 18:28:43;;;;;;;5.90;2.80;;;12.00;99.90;;;;;;5023672;28;20018;-73
2022/11/07 18:31:10;;;;;;;6.53;2.88;;;11.90;99.90;;;;;;5022125;28;20029;-74
2022/11/07 18:33:36;;;;;;;9.20;3.35;;;11.80;99.90;;;;;;4989777;28;20100;-75
2022/11/07 18:36:05;;;;;;;10.55;3.25;;;11.80;99.90;;;;;;5022923;28;20220;-77
2022/11/07 18:38:32;;;;;;;8.65;3.10;;;11.70;99.90;;;;;;5005957;28;20022;-76
2022/11/07 18:41:06;;;;;;;9.20;3.15;;;11.60;99.90;;;;;;5022892;28;20036;-74
2022/11/07 18:43:34;;;;;;;7.57;3.25;;;11.50;99.90;;;;;;4993328;28;20031;-75
2022/11/07 18:46:00;;;;;;;9.88;3.65;;;11.50;99.90;;;;;;4985762;28;20308;-74
2022/11/07 18:48:29;;;;;;;9.25;4.47;;;11.40;99.90;;;;;;4986158;28;20026;-75
2022/11/07 18:50:59;;;;;;;9.93;4.22;;;11.30;99.90;;;;;;4970575;28;20208;-75
2022/11/07 18:53:26;;;;;;;10.27;4.45;;;11.20;99.90;;;;;;5023137;28;20064;-71
2022/11/07 18:56:00;;;;;;;12.33;4.70;;;11.10;99.90;;;;;;5022264;28;20368;-73
2022/11/07 18:58:30;;;;;;;8.77;4.40;;;11.10;99.90;;;;;;5022972;28;20185;-75
2022/11/07 19:01:05;;;;;;;8.95;3.92;;;11.00;99.90;;;;;;5022438;28;20316;-74
2022/11/07 19:03:32;;;;;;;9.10;3.90;;;11.00;99.90;;;;;;5022612;28;20313;-75
2022/11/07 19:06:00;;;;;;;9.23;3.83;;;10.90;99.90;;;;;;5022653;28;20038;-75
2022/11/07 19:08:31;;;;;;;12.63;4.05;;;10.90;99.90;;;;;;5023442;28;20361;-76
2022/11/07 19:10:58;;;;;;;7.57;3.78;;;10.90;99.90;;;;;;5021239;28;20330;-75
2022/11/07 19:13:25;;;;;;;6.90;3.75;;;10.80;99.90;;;;;;5003503;28;20033;-75